Time;durP1;ratioP1;P1;durP2;ratioP2;P2;SDS_P1;SDS_P2;PMS_P1;PMS_P2;Temp;Humidity;BMP_temperature;BMP_pressure;BME280_temperature;BME280_humidity;BME280_pressure;Samples;Min_cycle;Max_cycle;Signal;HPM_P1;HPM_P2
2022/10/18 00:00:32;;;;;;;10.13;6.50;;;;;;;;;;4960172;28;20050;-69
2022/10/18 00:02:57;;;;;;;12.85;7.55;;;;;;;;;;4960983;28;20047;-69
2022/10/18 00:05:23;;;;;;;12.07;6.80;;;;;;;;;;4961607;28;20488;-68
2022/10/18 00:07:48;;;;;;;9.20;6.05;;;;;;;;;;4961003;28;20050;-69
2022/10/18 00:10:14;;;;;;;7.95;5.97;;;;;;;;;;4961426;28;20047;-67
2022/10/18 00:12:39;;;;;;;9.02;5.72;;;;;;;;;;4960058;28;20776;-69
2022/10/18 00:15:06;;;;;;;7.50;5.22;;;;;;;;;;4961009;28;20069;-68
2022/10/18 00:17:34;;;;;;;8.23;5.40;;;;;;;;;;4961191;28;20552;-70
2022/10/18 00:19:59;;;;;;;13.05;5.50;;;;;;;;;;4960828;28;20050;-67
2022/10/18 00:22:25;;;;;;;9.85;5.10;;;;;;;;;;4960770;28;20062;-66
2022/10/18 00:24:50;;;;;;;7.35;5.32;;;;;;;;;;4960376;28;20162;-67
2022/10/18 00:27:16;;;;;;;9.38;5.30;;;;;;;;;;4961145;28;20039;-68
2022/10/18 00:29:42;;;;;;;7.00;4.78;;;;;;;;;;4959176;28;20117;-68
2022/10/18 00:32:07;;;;;;;10.23;4.93;;;;;;;;;;4961372;28;20137;-69
2022/10/18 00:34:33;;;;;;;6.22;4.90;;;;;;;;;;4959824;28;20463;-68
2022/10/18 00:36:58;;;;;;;10.85;5.63;;;;;;;;;;4961257;28;20054;-68
2022/10/18 00:39:23;;;;;;;8.05;5.80;;;;;;;;;;4961088;28;20068;-70
2022/10/18 00:41:49;;;;;;;13.75;5.82;;;;;;;;;;4960804;28;20042;-67
2022/10/18 00:44:15;;;;;;;7.63;5.57;;;;;;;;;;4962384;28;20038;-69
2022/10/18 00:46:47;;;;;;;14.02;5.32;;;;;;;;;;4963125;28;20054;-68
2022/10/18 00:49:16;;;;;;;8.57;5.05;;;;;;;;;;4964478;28;20035;-68
2022/10/18 00:51:55;;;;;;;10.98;6.55;;;;;;;;;;4964234;28;20428;-67
2022/10/18 00:54:22;;;;;;;7.90;6.03;;;;;;;;;;4964027;28;20115;-67
2022/10/18 00:56:47;;;;;;;7.38;5.45;;;;;;;;;;4963536;28;20114;-69
2022/10/18 00:59:15;;;;;;;9.13;5.40;;;;;;;;;;4964197;28;20511;-68
2022/10/18 01:01:41;;;;;;;5.60;5.03;;;;;;;;;;4964187;28;20043;-68
2022/10/18 01:04:06;;;;;;;5.15;4.15;;;;;;;;;;4964829;28;20046;-67
2022/10/18 01:06:36;;;;;;;6.85;4.65;;;;;;;;;;4963683;28;20049;-69
2022/10/18 01:09:16;;;;;;;4.30;3.63;;;;;;;;;;4961867;28;20500;-67
2022/10/18 01:12:10;;;;;;;8.75;4.10;;;;;;;;;;4960774;28;20055;-69
2022/10/18 01:15:05;;;;;;;9.13;4.38;;;;;;;;;;4957448;28;20054;-69
2022/10/18 01:17:58;;;;;;;5.30;3.70;;;;;;;;;;4961499;28;20552;-69
2022/10/18 01:20:30;;;;;;;8.68;4.40;;;;;;;;;;4960376;28;20522;-66
2022/10/18 01:23:04;;;;;;;5.45;4.68;;;;;;;;;;4961597;28;20058;-69
2022/10/18 01:25:50;;;;;;;5.70;4.22;;;;;;;;;;4963424;28;20042;-69
2022/10/18 01:28:37;;;;;;;7.80;4.40;;;;;;;;;;4959483;28;20403;-72
2022/10/18 01:31:06;;;;;;;5.38;4.25;;;;;;;;;;4963487;28;20055;-67
2022/10/18 01:33:35;;;;;;;10.68;4.70;;;;;;;;;;4963752;28;20050;-69
2022/10/18 01:36:04;;;;;;;9.32;4.60;;;;;;;;;;4962776;28;20078;-67
2022/10/18 01:38:31;;;;;;;9.02;4.32;;;;;;;;;;4963156;28;20133;-69
2022/10/18 01:40:59;;;;;;;4.50;3.65;;;;;;;;;;4962520;28;20351;-69
2022/10/18 01:43:28;;;;;;;5.32;3.72;;;;;;;;;;4962276;28;20069;-67
2022/10/18 01:45:55;;;;;;;13.32;4.47;;;;;;;;;;4962385;28;20065;-69
2022/10/18 01:48:22;;;;;;;7.15;4.07;;;;;;;;;;4962646;28;20061;-69
2022/10/18 01:50:47;;;;;;;4.38;3.85;;;;;;;;;;4963546;28;20077;-69
2022/10/18 01:53:32;;;;;;;9.05;3.72;;;;;;;;;;4963406;28;21005;-68
2022/10/18 01:56:20;;;;;;;10.05;3.50;;;;;;;;;;4962701;28;20126;-69
2022/10/18 01:58:55;;;;;;;8.38;4.10;;;;;;;;;;4962463;28;20079;-69
2022/10/18 02:01:48;;;;;;;6.72;4.30;;;;;;;;;;4963281;28;20075;-69
2022/10/18 02:04:28;;;;;;;9.25;5.03;;;;;;;;;;4963019;28;20050;-69
2022/10/18 02:07:02;;;;;;;7.93;4.78;;;;;;;;;;4960701;28;20051;-70
2022/10/18 02:09:45;;;;;;;8.48;5.13;;;;;;;;;;4960841;28;20487;-69
2022/10/18 02:12:14;;;;;;;9.40;4.53;;;;;;;;;;4953684;28;20801;-69
2022/10/18 02:14:42;;;;;;;6.45;4.63;;;;;;;;;;4962454;28;20054;-70
2022/10/18 02:17:10;;;;;;;9.48;5.50;;;;;;;;;;4961603;28;20109;-68
2022/10/18 02:19:46;;;;;;;8.05;4.55;;;;;;;;;;4961604;28;20050;-69
2022/10/18 02:22:13;;;;;;;7.20;4.53;;;;;;;;;;4962961;28;20082;-68
2022/10/18 02:24:45;;;;;;;11.07;4.15;;;;;;;;;;4962325;28;20467;-69
2022/10/18 02:27:11;;;;;;;12.35;4.75;;;;;;;;;;4962719;28;20142;-69
2022/10/18 02:29:38;;;;;;;19.27;4.97;;;;;;;;;;4961583;28;20051;-67
2022/10/18 02:32:34;;;;;;;10.20;4.60;;;;;;;;;;4963026;28;20648;-70
2022/10/18 02:35:06;;;;;;;12.20;4.50;;;;;;;;;;4959960;28;20124;-69
2022/10/18 02:37:37;;;;;;;11.43;4.50;;;;;;;;;;4962651;28;20058;-67
2022/10/18 02:40:05;;;;;;;5.55;4.00;;;;;;;;;;4962703;28;20043;-68
2022/10/18 02:42:36;;;;;;;22.45;4.38;;;;;;;;;;4961448;28;20109;-69
2022/10/18 02:45:04;;;;;;;4.68;3.63;;;;;;;;;;4962647;28;20074;-69
2022/10/18 02:47:29;;;;;;;8.93;3.88;;;;;;;;;;4962493;28;20137;-69
2022/10/18 02:49:55;;;;;;;5.07;3.65;;;;;;;;;;4962379;28;20599;-69
2022/10/18 02:52:20;;;;;;;8.77;3.78;;;;;;;;;;4960742;28;20046;-67
2022/10/18 02:54:46;;;;;;;7.50;4.00;;;;;;;;;;4962179;28;20058;-70
2022/10/18 02:57:11;;;;;;;7.00;3.70;;;;;;;;;;4962143;28;20571;-68
2022/10/18 02:59:36;;;;;;;5.28;3.65;;;;;;;;;;4962011;28;20635;-67
2022/10/18 03:02:02;;;;;;;4.57;3.90;;;;;;;;;;4962238;28;20050;-69
2022/10/18 03:04:27;;;;;;;7.82;3.80;;;;;;;;;;4960915;28;20093;-66
2022/10/18 03:06:53;;;;;;;9.07;4.30;;;;;;;;;;4961100;28;20047;-70
2022/10/18 03:09:18;;;;;;;5.88;4.05;;;;;;;;;;4961951;28;20648;-68
2022/10/18 03:11:44;;;;;;;7.05;4.25;;;;;;;;;;4961139;28;20049;-68
2022/10/18 03:14:09;;;;;;;5.78;4.35;;;;;;;;;;4961116;28;20101;-68
2022/10/18 03:16:37;;;;;;;15.80;4.55;;;;;;;;;;4959631;28;20120;-67
2022/10/18 03:19:03;;;;;;;9.00;4.25;;;;;;;;;;4961790;28;20058;-69
2022/10/18 03:21:28;;;;;;;9.82;5.20;;;;;;;;;;4962158;28;20054;-68
2022/10/18 03:23:54;;;;;;;9.52;5.35;;;;;;;;;;4960321;28;20054;-68
2022/10/18 03:26:20;;;;;;;12.40;5.13;;;;;;;;;;4960463;28;20377;-66
2022/10/18 03:28:46;;;;;;;7.28;4.97;;;;;;;;;;4958607;28;20500;-69
2022/10/18 03:31:11;;;;;;;9.52;5.60;;;;;;;;;;4960180;28;20053;-70
2022/10/18 03:33:37;;;;;;;13.30;5.95;;;;;;;;;;4961893;28;20075;-69
2022/10/18 03:36:02;;;;;;;11.32;5.68;;;;;;;;;;4959549;28;20055;-67
2022/10/18 03:38:28;;;;;;;12.48;5.93;;;;;;;;;;4959942;28;20042;-69
2022/10/18 03:40:53;;;;;;;8.05;5.75;;;;;;;;;;4960289;28;20056;-67
2022/10/18 03:43:19;;;;;;;8.57;5.28;;;;;;;;;;4961802;28;20043;-69
2022/10/18 03:45:44;;;;;;;8.02;5.00;;;;;;;;;;4961399;28;20046;-66
2022/10/18 03:48:09;;;;;;;7.50;4.68;;;;;;;;;;4960847;28;20047;-69
2022/10/18 03:50:35;;;;;;;10.82;5.25;;;;;;;;;;4960900;28;20057;-69
2022/10/18 03:53:00;;;;;;;5.93;4.50;;;;;;;;;;4961833;28;20081;-69
2022/10/18 03:55:26;;;;;;;11.55;4.70;;;;;;;;;;4961606;28;20515;-68
2022/10/18 03:57:51;;;;;;;10.98;4.45;;;;;;;;;;4960484;28;20539;-69
2022/10/18 04:00:17;;;;;;;6.13;4.85;;;;;;;;;;4961092;28;20452;-69
2022/10/18 04:02:42;;;;;;;18.45;4.80;;;;;;;;;;4961179;28;20433;-68
2022/10/18 04:05:08;;;;;;;9.40;4.57;;;;;;;;;;4960159;28;20042;-69
2022/10/18 04:07:34;;;;;;;7.10;4.85;;;;;;;;;;4961676;28;20523;-67
2022/10/18 04:10:00;;;;;;;7.50;4.72;;;;;;;;;;4960147;28;20439;-69
2022/10/18 04:12:25;;;;;;;9.38;5.05;;;;;;;;;;4960421;28;20059;-68
2022/10/18 04:14:51;;;;;;;6.38;4.72;;;;;;;;;;4961579;28;20054;-68
2022/10/18 04:17:16;;;;;;;9.90;4.15;;;;;;;;;;4960603;28;20062;-70
2022/10/18 04:19:42;;;;;;;9.93;4.75;;;;;;;;;;4962207;28;20404;-67
2022/10/18 04:22:08;;;;;;;7.35;5.00;;;;;;;;;;4965451;28;20085;-69
2022/10/18 04:24:33;;;;;;;8.75;5.00;;;;;;;;;;4964957;28;20062;-70
2022/10/18 04:26:58;;;;;;;10.68;5.00;;;;;;;;;;4965512;28;20042;-69
2022/10/18 04:29:24;;;;;;;12.30;5.53;;;;;;;;;;4964260;28;20083;-68
2022/10/18 04:31:49;;;;;;;8.20;4.68;;;;;;;;;;4964271;28;20467;-69
2022/10/18 04:34:15;;;;;;;9.52;5.03;;;;;;;;;;4964761;28;20165;-68
2022/10/18 04:36:40;;;;;;;8.20;5.22;;;;;;;;;;4964054;28;20520;-70
2022/10/18 04:39:06;;;;;;;13.00;6.50;;;;;;;;;;4964136;28;20047;-69
2022/10/18 04:41:31;;;;;;;8.35;5.63;;;;;;;;;;4963652;28;20043;-67
2022/10/18 04:43:57;;;;;;;13.70;6.90;;;;;;;;;;4964432;28;20046;-69
2022/10/18 04:46:22;;;;;;;11.80;5.72;;;;;;;;;;4963539;28;20054;-69
2022/10/18 04:48:47;;;;;;;12.02;5.85;;;;;;;;;;4964151;28;20069;-69
2022/10/18 04:51:13;;;;;;;16.77;7.32;;;;;;;;;;4963193;28;20046;-69
2022/10/18 04:53:38;;;;;;;20.83;5.35;;;;;;;;;;4962840;28;20677;-68
2022/10/18 04:56:04;;;;;;;8.10;5.07;;;;;;;;;;4960436;28;20595;-69
2022/10/18 04:58:30;;;;;;;7.43;4.65;;;;;;;;;;4963048;28;20046;-69
2022/10/18 05:00:55;;;;;;;10.88;4.68;;;;;;;;;;4963881;28;20054;-69
2022/10/18 05:03:20;;;;;;;8.25;4.53;;;;;;;;;;4963340;28;20138;-69
2022/10/18 05:05:46;;;;;;;7.88;4.80;;;;;;;;;;4962435;28;20100;-69
2022/10/18 05:08:12;;;;;;;10.95;5.13;;;;;;;;;;4962691;28;20039;-68
2022/10/18 05:10:37;;;;;;;10.35;4.72;;;;;;;;;;4959768;28;20145;-69
2022/10/18 05:13:03;;;;;;;7.00;5.20;;;;;;;;;;4963067;28;20093;-69
2022/10/18 05:15:28;;;;;;;6.93;4.68;;;;;;;;;;4962500;28;20038;-70
2022/10/18 05:17:54;;;;;;;7.00;4.32;;;;;;;;;;4961954;28;20868;-69
2022/10/18 05:20:19;;;;;;;10.13;5.65;;;;;;;;;;4945918;28;20058;-70
2022/10/18 05:22:45;;;;;;;10.48;4.32;;;;;;;;;;4963436;28;20047;-69
2022/10/18 05:25:10;;;;;;;6.72;4.22;;;;;;;;;;4961652;28;20122;-68
2022/10/18 05:27:36;;;;;;;6.95;4.50;;;;;;;;;;4962852;28;20503;-68
2022/10/18 05:30:03;;;;;;;7.90;4.80;;;;;;;;;;4962135;28;20043;-69
2022/10/18 05:32:28;;;;;;;7.82;3.90;;;;;;;;;;4960723;28;20042;-68
2022/10/18 05:34:54;;;;;;;6.57;3.85;;;;;;;;;;4961229;28;20109;-68
2022/10/18 05:37:20;;;;;;;11.20;4.00;;;;;;;;;;4961965;28;20038;-69
2022/10/18 05:39:46;;;;;;;5.43;4.03;;;;;;;;;;4962012;28;20047;-69
2022/10/18 05:42:11;;;;;;;9.60;4.10;;;;;;;;;;4962493;28;20047;-70
2022/10/18 05:44:37;;;;;;;4.07;3.65;;;;;;;;;;4963211;28;20047;-69
2022/10/18 05:47:02;;;;;;;8.85;4.30;;;;;;;;;;4964079;28;20078;-70
2022/10/18 05:49:28;;;;;;;15.13;3.72;;;;;;;;;;4960422;28;20146;-68
2022/10/18 05:51:53;;;;;;;21.83;4.22;;;;;;;;;;4963401;28;20074;-69
2022/10/18 05:54:19;;;;;;;5.25;3.45;;;;;;;;;;4963213;28;20129;-70
2022/10/18 05:56:45;;;;;;;7.30;3.58;;;;;;;;;;4963907;28;20043;-68
2022/10/18 05:59:11;;;;;;;9.98;3.85;;;;;;;;;;4962230;28;20420;-69
2022/10/18 06:01:41;;;;;;;5.45;3.50;;;;;;;;;;4963925;28;20038;-69
2022/10/18 06:04:09;;;;;;;7.80;4.00;;;;;;;;;;4963483;28;20047;-70
2022/10/18 06:06:35;;;;;;;4.75;2.97;;;;;;;;;;4961775;28;20046;-70
2022/10/18 06:09:02;;;;;;;7.97;3.33;;;;;;;;;;4963122;28;20043;-70
2022/10/18 06:11:28;;;;;;;12.82;3.75;;;;;;;;;;4962905;28;20085;-69
2022/10/18 06:13:54;;;;;;;6.30;3.53;;;;;;;;;;4963434;28;20611;-70
2022/10/18 06:16:21;;;;;;;6.20;3.30;;;;;;;;;;4962960;28;20089;-72
2022/10/18 06:18:51;;;;;;;10.95;3.78;;;;;;;;;;4963225;28;20046;-67
2022/10/18 06:21:17;;;;;;;6.60;3.05;;;;;;;;;;4962876;28;20126;-70
2022/10/18 06:23:46;;;;;;;5.75;3.00;;;;;;;;;;4962961;28;20078;-71
2022/10/18 06:26:12;;;;;;;5.10;3.10;;;;;;;;;;4963275;28;20050;-70
2022/10/18 06:28:38;;;;;;;7.32;3.13;;;;;;;;;;4962418;28;20035;-69
2022/10/18 06:31:04;;;;;;;2.85;2.53;;;;;;;;;;4963172;28;20444;-69
2022/10/18 06:33:31;;;;;;;3.10;2.67;;;;;;;;;;4962758;28;20109;-71
2022/10/18 06:36:02;;;;;;;3.65;3.20;;;;;;;;;;4963043;28;20436;-69
2022/10/18 06:38:28;;;;;;;8.45;2.42;;;;;;;;;;4962588;28;20495;-70
2022/10/18 06:40:55;;;;;;;6.47;2.72;;;;;;;;;;4961347;28;20062;-68
2022/10/18 06:43:20;;;;;;;5.32;2.60;;;;;;;;;;4961756;28;20046;-68
2022/10/18 06:45:46;;;;;;;6.05;2.60;;;;;;;;;;4962674;28;20117;-70
2022/10/18 06:48:11;;;;;;;7.57;2.58;;;;;;;;;;4962417;28;20074;-70
2022/10/18 06:50:37;;;;;;;3.47;2.67;;;;;;;;;;4957611;28;20053;-70
2022/10/18 06:53:05;;;;;;;3.95;3.05;;;;;;;;;;4962906;28;20556;-72
2022/10/18 06:55:30;;;;;;;3.78;2.72;;;;;;;;;;4962145;28;20046;-77
2022/10/18 06:57:56;;;;;;;10.10;2.60;;;;;;;;;;4962545;28;20419;-75
2022/10/18 07:00:21;;;;;;;8.65;2.40;;;;;;;;;;4962060;28;20424;-76
2022/10/18 07:02:47;;;;;;;5.68;2.40;;;;;;;;;;4962194;28;20109;-71
2022/10/18 07:05:12;;;;;;;10.07;2.22;;;;;;;;;;4961857;28;20049;-73
2022/10/18 07:07:38;;;;;;;3.88;2.60;;;;;;;;;;4962261;28;20065;-71
2022/10/18 07:10:04;;;;;;;6.20;2.60;;;;;;;;;;4962487;28;20094;-72
2022/10/18 07:12:31;;;;;;;9.65;2.70;;;;;;;;;;4962167;28;20046;-75
2022/10/18 07:14:56;;;;;;;7.65;2.50;;;;;;;;;;4962419;28;20058;-71
2022/10/18 07:17:21;;;;;;;4.43;2.05;;;;;;;;;;4961051;28;20388;-71
2022/10/18 07:19:47;;;;;;;5.28;2.50;;;;;;;;;;4961780;28;20647;-71
2022/10/18 07:22:12;;;;;;;4.75;2.20;;;;;;;;;;4954653;28;20108;-70
2022/10/18 07:24:38;;;;;;;5.18;2.33;;;;;;;;;;4961449;28;20073;-72
2022/10/18 07:27:04;;;;;;;4.90;2.00;;;;;;;;;;4961095;28;20130;-73
2022/10/18 07:29:30;;;;;;;4.85;2.60;;;;;;;;;;4961738;28;20050;-70
2022/10/18 07:31:55;;;;;;;4.57;2.35;;;;;;;;;;4961947;28;20133;-70
2022/10/18 07:34:21;;;;;;;8.32;3.00;;;;;;;;;;4960164;28;20053;-71
2022/10/18 07:36:46;;;;;;;11.38;3.22;;;;;;;;;;4962083;28;20504;-71
2022/10/18 07:39:12;;;;;;;11.30;3.22;;;;;;;;;;4960958;28;20138;-73
2022/10/18 07:41:38;;;;;;;26.05;5.20;;;;;;;;;;4961930;28;20050;-69
2022/10/18 07:44:04;;;;;;;10.50;2.90;;;;;;;;;;4962127;28;20066;-70
2022/10/18 07:46:30;;;;;;;8.63;3.22;;;;;;;;;;4959696;28;20085;-73
2022/10/18 07:48:57;;;;;;;4.68;3.13;;;;;;;;;;4960770;28;20074;-70
2022/10/18 07:51:22;;;;;;;8.43;3.47;;;;;;;;;;4961928;28;20055;-73
2022/10/18 07:53:48;;;;;;;5.65;2.83;;;;;;;;;;4967486;28;20065;-73
2022/10/18 07:56:16;;;;;;;3.70;3.00;;;;;;;;;;4971414;28;20058;-70
2022/10/18 07:58:47;;;;;;;5.38;2.47;;;;;;;;;;4968817;28;20846;-69
2022/10/18 08:01:13;;;;;;;6.22;2.92;;;;;;;;;;4966741;28;20562;-70
2022/10/18 08:03:40;;;;;;;8.02;3.08;;;;;;;;;;4969669;28;20721;-69
2022/10/18 08:06:10;;;;;;;6.63;2.70;;;;;;;;;;4968115;28;20843;-71
2022/10/18 08:08:37;;;;;;;5.72;2.67;;;;;;;;;;4967135;28;20105;-71
2022/10/18 08:11:05;;;;;;;4.03;2.47;;;;;;;;;;4966969;28;20137;-69
2022/10/18 08:13:31;;;;;;;6.47;2.63;;;;;;;;;;4967893;28;20125;-70
2022/10/18 08:16:02;;;;;;;7.75;2.60;;;;;;;;;;4968267;28;20050;-69
2022/10/18 08:18:28;;;;;;;5.70;2.45;;;;;;;;;;4967652;28;20145;-69
2022/10/18 08:20:53;;;;;;;5.68;2.80;;;;;;;;;;4967824;28;20054;-69
2022/10/18 08:23:19;;;;;;;6.13;2.55;;;;;;;;;;4967238;28;20519;-72
2022/10/18 08:25:44;;;;;;;5.63;2.60;;;;;;;;;;4967930;28;20500;-70
2022/10/18 08:28:12;;;;;;;2.92;2.42;;;;;;;;;;4967762;28;20217;-69
2022/10/18 08:30:38;;;;;;;13.68;2.53;;;;;;;;;;4967139;28;20066;-72
2022/10/18 08:33:04;;;;;;;7.43;2.42;;;;;;;;;;4966747;28;20042;-73
2022/10/18 08:35:30;;;;;;;5.18;2.10;;;;;;;;;;4968090;28;20069;-69
2022/10/18 08:37:56;;;;;;;10.60;2.45;;;;;;;;;;4967796;28;20149;-70
2022/10/18 08:40:22;;;;;;;4.22;2.03;;;;;;;;;;4967200;28;20134;-70
2022/10/18 08:43:02;;;;;;;8.60;3.25;;;;;;;;;;4967478;28;20058;-70
2022/10/18 08:45:29;;;;;;;7.80;2.47;;;;;;;;;;4966773;28;20046;-70
2022/10/18 08:47:56;;;;;;;11.75;2.60;;;;;;;;;;4961876;28;20149;-72
2022/10/18 08:50:27;;;;;;;4.70;2.50;;;;;;;;;;4967637;28;20089;-74
2022/10/18 08:53:21;;;;;;;7.25;2.40;;;;;;;;;;4917572;28;20073;-76
2022/10/18 08:55:56;;;;;;;15.95;2.30;;;;;;;;;;4966638;28;20057;-70
2022/10/18 08:58:25;;;;;;;7.20;2.53;;;;;;;;;;4966696;28;20145;-70
2022/10/18 09:01:00;;;;;;;5.32;2.60;;;;;;;;;;4967900;28;20516;-70
2022/10/18 09:03:50;;;;;;;6.88;2.30;;;;;;;;;;4966040;28;20047;-70
2022/10/18 09:06:25;;;;;;;6.60;2.33;;;;;;;;;;4964495;28;20714;-68
2022/10/18 09:09:15;;;;;;;3.80;2.20;;;;;;;;;;4963960;28;20047;-69
2022/10/18 09:11:46;;;;;;;10.27;2.42;;;;;;;;;;4964329;28;20059;-69
2022/10/18 09:14:21;;;;;;;;;;;;;;;;;;4964905;28;20464;-69
2022/10/18 09:16:58;;;;;;;4.93;2.22;;;;;;;;;;4962625;28;20351;-69
2022/10/18 09:19:42;;;;;;;3.17;2.20;;;;;;;;;;4964258;28;20042;-70
2022/10/18 09:22:14;;;;;;;4.60;2.72;;;;;;;;;;4964096;28;20543;-70
2022/10/18 09:24:43;;;;;;;;;;;;;;;;;;4963979;28;20404;-72
2022/10/18 09:27:21;;;;;;;5.00;2.30;;;;;;;;;;4963039;28;20040;-69
2022/10/18 09:30:05;;;;;;;11.05;2.38;;;;;;;;;;4960071;28;20946;-70
2022/10/18 09:32:43;;;;;;;6.82;2.20;;;;;;;;;;4945312;28;20114;-70
2022/10/18 09:35:17;;;;;;;9.23;2.75;;;;;;;;;;4964111;28;20101;-70
2022/10/18 09:37:44;;;;;;;8.00;2.30;;;;;;;;;;4964025;28;20042;-71
2022/10/18 09:40:21;;;;;;;5.20;2.28;;;;;;;;;;4954063;28;20165;-70
2022/10/18 09:43:12;;;;;;;7.18;2.20;;;;;;;;;;4963375;28;20042;-69
2022/10/18 09:45:43;;;;;;;9.70;2.37;;;;;;;;;;4963301;28;20051;-70
2022/10/18 09:48:17;;;;;;;6.10;2.83;;;;;;;;;;4964170;28;20081;-68
2022/10/18 09:50:47;;;;;;;5.40;2.33;;;;;;;;;;4961899;28;20708;-68
2022/10/18 09:53:23;;;;;;;8.88;2.70;;;;;;;;;;4963583;28;20100;-74
2022/10/18 09:56:23;;;;;;;9.50;2.50;;;;;;;;;;4963887;28;20137;-68
2022/10/18 09:58:50;;;;;;;8.75;2.78;;;;;;;;;;4952337;28;20051;-72
2022/10/18 10:01:21;;;;;;;10.38;2.63;;;;;;;;;;4963290;28;20057;-71
2022/10/18 10:03:47;;;;;;;6.47;2.47;;;;;;;;;;4963495;28;20058;-72
2022/10/18 10:06:15;;;;;;;5.70;2.58;;;;;;;;;;4963339;28;20050;-72
2022/10/18 10:08:43;;;;;;;5.80;2.63;;;;;;;;;;4962620;28;20137;-69
2022/10/18 10:11:25;;;;;;;6.95;2.35;;;;;;;;;;4962710;28;20137;-70
2022/10/18 10:13:51;;;;;;;9.25;2.65;;;;;;;;;;4963084;28;20065;-72
2022/10/18 10:16:16;;;;;;;3.92;2.70;;;;;;;;;;4963120;28;20417;-69
2022/10/18 10:18:42;;;;;;;6.20;2.72;;;;;;;;;;4962105;28;20108;-73
2022/10/18 10:21:14;;;;;;;9.27;2.65;;;;;;;;;;4963370;28;20101;-73
2022/10/18 10:23:52;;;;;;;2.60;2.17;;;;;;;;;;4962484;28;20073;-69
2022/10/18 10:26:29;;;;;;;6.20;2.60;;;;;;;;;;4963466;28;20105;-70
2022/10/18 10:28:55;;;;;;;7.18;2.47;;;;;;;;;;4960149;28;20054;-70
2022/10/18 10:31:24;;;;;;;7.93;2.30;;;;;;;;;;4963453;28;20047;-73
2022/10/18 10:34:10;;;;;;;6.53;2.47;;;;;;;;;;4962514;28;20055;-69
2022/10/18 10:36:46;;;;;;;7.95;2.65;;;;;;;;;;4962425;28;20472;-68
2022/10/18 10:39:18;;;;;;;2.63;2.22;;;;;;;;;;4962600;28;20452;-71
2022/10/18 10:41:48;;;;;;;7.05;2.08;;;;;;;;;;4962819;28;20496;-68
2022/10/18 10:44:16;;;;;;;8.00;2.30;;;;;;;;;;4961769;28;20078;-69
2022/10/18 10:46:41;;;;;;;6.60;2.25;;;;;;;;;;4961829;28;20062;-70
2022/10/18 10:49:28;;;;;;;5.03;2.13;;;;;;;;;;4962553;28;20061;-71
2022/10/18 10:52:01;;;;;;;8.23;2.38;;;;;;;;;;4962736;28;20058;-67
2022/10/18 10:54:29;;;;;;;4.85;2.40;;;;;;;;;;4960840;28;20062;-73
2022/10/18 10:57:36;;;;;;;3.83;2.30;;;;;;;;;;4961805;28;20046;-68
2022/10/18 11:00:03;;;;;;;4.80;2.60;;;;;;;;;;4961902;28;20110;-68
2022/10/18 11:02:31;;;;;;;12.95;2.30;;;;;;;;;;4961783;28;20042;-73
2022/10/18 11:05:21;;;;;;;5.43;2.28;;;;;;;;;;4962179;28;20066;-68
2022/10/18 11:07:50;;;;;;;9.73;2.08;;;;;;;;;;4961099;28;20039;-70
2022/10/18 11:10:18;;;;;;;4.78;1.95;;;;;;;;;;4961659;28;20097;-73
2022/10/18 11:12:47;;;;;;;4.30;1.90;;;;;;;;;;4961393;28;20112;-73
2022/10/18 11:15:37;;;;;;;4.68;2.05;;;;;;;;;;4962310;28;20054;-68
2022/10/18 11:18:36;;;;;;;4.82;2.10;;;;;;;;;;4961294;28;20047;-73
2022/10/18 11:21:23;;;;;;;3.20;2.35;;;;;;;;;;4944740;28;20042;-75
2022/10/18 11:23:49;;;;;;;4.53;2.10;;;;;;;;;;4962311;28;20070;-68
2022/10/18 11:26:23;;;;;;;5.00;2.50;;;;;;;;;;4962464;28;20495;-73
2022/10/18 11:29:10;;;;;;;6.30;2.20;;;;;;;;;;4959662;28;20101;-71
2022/10/18 11:31:50;;;;;;;3.95;2.25;;;;;;;;;;4962324;28;20057;-68
2022/10/18 11:34:34;;;;;;;8.50;2.42;;;;;;;;;;4962117;28;20390;-73
2022/10/18 11:37:34;;;;;;;4.63;2.22;;;;;;;;;;4956186;28;20094;-71
2022/10/18 11:40:26;;;;;;;5.05;2.10;;;;;;;;;;4915987;28;20137;-69
2022/10/18 11:42:57;;;;;;;7.57;2.15;;;;;;;;;;4939846;28;20043;-69
2022/10/18 11:45:45;;;;;;;9.48;2.67;;;;;;;;;;4962154;28;20042;-70
2022/10/18 11:48:41;;;;;;;3.95;1.95;;;;;;;;;;4960106;28;20194;-73
2022/10/18 11:51:31;;;;;;;5.25;2.20;;;;;;;;;;4944705;28;20047;-69
2022/10/18 11:54:19;;;;;;;7.40;2.55;;;;;;;;;;4961794;28;20110;-73
2022/10/18 11:56:54;;;;;;;5.20;1.80;;;;;;;;;;4960456;28;20055;-70
2022/10/18 11:59:53;;;;;;;4.15;2.05;;;;;;;;;;4961124;28;20086;-72
2022/10/18 12:02:49;;;;;;;4.20;2.05;;;;;;;;;;4960720;28;20042;-69
2022/10/18 12:05:16;;;;;;;8.77;1.95;;;;;;;;;;4945177;28;20057;-76
2022/10/18 12:07:52;;;;;;;10.68;2.25;;;;;;;;;;4958100;28;20439;-68
2022/10/18 12:10:20;;;;;;;2.58;1.67;;;;;;;;;;4959382;28;20137;-73
2022/10/18 12:12:57;;;;;;;5.90;2.10;;;;;;;;;;4957792;28;20112;-71
2022/10/18 12:15:25;;;;;;;5.82;1.88;;;;;;;;;;4959687;28;20133;-70
2022/10/18 12:17:58;;;;;;;3.42;1.83;;;;;;;;;;4961222;28;20046;-72
2022/10/18 12:20:31;;;;;;;7.70;1.80;;;;;;;;;;4959385;28;20038;-73
2022/10/18 12:23:00;;;;;;;5.90;2.17;;;;;;;;;;4973746;28;20068;-68
2022/10/18 12:25:29;;;;;;;6.72;2.20;;;;;;;;;;4960154;28;20042;-68
2022/10/18 12:28:11;;;;;;;5.78;1.98;;;;;;;;;;4960769;28;21194;-69
2022/10/18 12:30:58;;;;;;;2.63;1.75;;;;;;;;;;4960405;28;21277;-73
2022/10/18 12:33:29;;;;;;;4.45;1.75;;;;;;;;;;4961065;28;20042;-68
2022/10/18 12:36:18;;;;;;;3.83;2.00;;;;;;;;;;4959209;28;20120;-69
2022/10/18 12:38:47;;;;;;;6.30;2.30;;;;;;;;;;4960243;28;20305;-69
2022/10/18 12:41:22;;;;;;;3.42;1.83;;;;;;;;;;4962652;28;20618;-69
2022/10/18 12:43:53;;;;;;;8.15;2.15;;;;;;;;;;4963441;28;20131;-69
2022/10/18 12:46:18;;;;;;;2.80;2.35;;;;;;;;;;4962608;28;20105;-69
2022/10/18 12:49:00;;;;;;;4.40;1.90;;;;;;;;;;4962663;28;20527;-69
2022/10/18 12:51:26;;;;;;;6.03;2.20;;;;;;;;;;4964618;28;20618;-69
2022/10/18 12:54:11;;;;;;;3.25;2.20;;;;;;;;;;4964159;28;20590;-69
2022/10/18 12:56:40;;;;;;;8.77;2.20;;;;;;;;;;4966444;28;20126;-69
2022/10/18 12:59:15;;;;;;;5.80;2.40;;;;;;;;;;4963688;28;20049;-69
2022/10/18 13:01:49;;;;;;;6.05;2.13;;;;;;;;;;4963428;28;20133;-70
2022/10/18 13:04:27;;;;;;;6.30;2.35;;;;;;;;;;4956698;28;20046;-70
2022/10/18 13:06:58;;;;;;;6.03;1.95;;;;;;;;;;4963256;28;20051;-69
2022/10/18 13:09:34;;;;;;;7.68;2.20;;;;;;;;;;4962672;28;20133;-69
2022/10/18 13:12:08;;;;;;;5.15;2.08;;;;;;;;;;4964130;28;21026;-69
2022/10/18 13:14:58;;;;;;;4.40;2.10;;;;;;;;;;4964015;28;20575;-70
2022/10/18 13:18:11;;;;;;;3.53;2.08;;;;;;;;;;4964055;28;20050;-70
2022/10/18 13:20:44;;;;;;;9.25;2.30;;;;;;;;;;4953814;28;20496;-70
2022/10/18 13:23:12;;;;;;;5.00;2.20;;;;;;;;;;4963849;28;20050;-69
2022/10/18 13:25:48;;;;;;;7.82;2.15;;;;;;;;;;4963629;28;20480;-70
2022/10/18 13:28:41;;;;;;;17.90;2.33;;;;;;;;;;4963080;28;20492;-70
2022/10/18 13:31:19;;;;;;;5.97;2.10;;;;;;;;;;4953332;28;20050;-69
2022/10/18 13:33:45;;;;;;;8.68;2.17;;;;;;;;;;4963482;28;20102;-70
2022/10/18 13:36:17;;;;;;;7.60;2.20;;;;;;;;;;4963339;28;20492;-69
2022/10/18 13:38:54;;;;;;;5.30;2.00;;;;;;;;;;4962409;28;20065;-70
2022/10/18 13:41:23;;;;;;;7.10;2.05;;;;;;;;;;4961626;28;20053;-72
2022/10/18 13:43:54;;;;;;;2.80;2.22;;;;;;;;;;4963918;28;20054;-70
2022/10/18 13:46:43;;;;;;;3.53;2.00;;;;;;;;;;4964108;28;20415;-69
2022/10/18 13:49:37;;;;;;;6.05;2.15;;;;;;;;;;4931615;28;20408;-72
2022/10/18 13:52:40;;;;;;;3.88;2.20;;;;;;;;;;4960709;28;20111;-72
2022/10/18 13:55:43;;;;;;;4.00;2.28;;;;;;;;;;4960708;28;20042;-71
2022/10/18 13:58:39;;;;;;;5.07;2.50;;;;;;;;;;4960569;28;20042;-68
2022/10/18 14:01:36;;;;;;;7.15;2.45;;;;;;;;;;4949849;28;20054;-69
2022/10/18 14:04:46;;;;;;;7.43;2.60;;;;;;;;;;4927087;28;20118;-70
2022/10/18 14:07:17;;;;;;;4.28;2.40;;;;;;;;;;4958835;28;20423;-69
2022/10/18 14:09:50;;;;;;;5.18;2.47;;;;;;;;;;4960083;28;20050;-68
2022/10/18 14:12:38;;;;;;;7.90;2.22;;;;;;;;;;4960958;28;20054;-68
2022/10/18 14:15:17;;;;;;;3.45;2.20;;;;;;;;;;4950563;28;20046;-69
2022/10/18 14:17:50;;;;;;;6.88;2.05;;;;;;;;;;4960763;28;20038;-71
2022/10/18 14:20:35;;;;;;;13.10;2.00;;;;;;;;;;4959973;28;20091;-69
2022/10/18 14:23:14;;;;;;;8.68;2.03;;;;;;;;;;4951011;28;20849;-69
2022/10/18 14:25:40;;;;;;;13.75;2.00;;;;;;;;;;4959883;28;20046;-68
2022/10/18 14:28:19;;;;;;;5.10;1.80;;;;;;;;;;4959204;28;20054;-70
2022/10/18 14:31:10;;;;;;;15.82;2.30;;;;;;;;;;4956059;28;20066;-71
2022/10/18 14:33:53;;;;;;;4.00;2.10;;;;;;;;;;4960640;28;20038;-68
2022/10/18 14:36:18;;;;;;;6.60;1.90;;;;;;;;;;4959523;28;20039;-69
2022/10/18 14:39:02;;;;;;;2.33;1.83;;;;;;;;;;4956840;28;20047;-70
2022/10/18 14:41:33;;;;;;;3.15;2.20;;;;;;;;;;4959340;28;20050;-68
2022/10/18 14:44:29;;;;;;;7.27;2.00;;;;;;;;;;4959281;28;20588;-69
2022/10/18 14:46:54;;;;;;;9.75;2.13;;;;;;;;;;4938616;28;20046;-67
2022/10/18 14:49:20;;;;;;;7.85;2.00;;;;;;;;;;4958087;28;20061;-71
2022/10/18 14:51:50;;;;;;;5.95;2.58;;;;;;;;;;4959296;28;20077;-67
2022/10/18 14:54:24;;;;;;;6.00;2.20;;;;;;;;;;4960023;28;20051;-68
2022/10/18 14:56:49;;;;;;;5.25;2.00;;;;;;;;;;4958950;28;20432;-69
2022/10/18 14:59:24;;;;;;;9.02;2.05;;;;;;;;;;4958733;28;20595;-67
2022/10/18 15:01:53;;;;;;;3.83;2.03;;;;;;;;;;4957375;28;20058;-70
2022/10/18 15:04:19;;;;;;;7.47;2.38;;;;;;;;;;4956250;28;20039;-68
2022/10/18 15:06:45;;;;;;;11.70;2.22;;;;;;;;;;4958120;28;20066;-67